FLO weather

Florence Regional Airport
Florence, South Carolina, United States

Public forecast

Using degrees Fahrenheit for public forecast. Weather courtesy of forecast.io.

Current aviation weather report (METAR) for Florence Regional Airport

Retrieved 2019/11/20 14:53 UTC (58 minutes ago):

KFLO 201453Z 36009KT 10SM CLR 13/05 A3012 RMK AO2 SLP197 T01280050 51022

Aviation forecast (TAF) for Florence Regional Airport

Retrieved 2019/11/20 12:22 UTC (3 hours ago):

TAF KFLO 201120Z 2012/2112 00000KT 4SM BR BKN035 FM201300 34006KT P6SM FEW090